sensor_id;sensor_type;location;lat;lon;timestamp;temperature;humidity
38568;DHT22;24338;48.280;10.970;2022-11-20T00:00:17;5.00;99.90
38568;DHT22;24338;48.280;10.970;2022-11-20T00:02:44;5.00;99.90
38568;DHT22;24338;48.280;10.970;2022-11-20T00:05:11;5.00;99.90
38568;DHT22;24338;48.280;10.970;2022-11-20T00:07:38;5.00;99.90
38568;DHT22;24338;48.280;10.970;2022-11-20T00:10:05;5.00;99.90
38568;DHT22;24338;48.280;10.970;2022-11-20T00:12:32;5.00;99.90
38568;DHT22;24338;48.280;10.970;2022-11-20T00:14:59;5.00;99.90
38568;DHT22;24338;48.280;10.970;2022-11-20T00:17:26;5.00;99.90
38568;DHT22;24338;48.280;10.970;2022-11-20T00:19:53;5.00;99.90
38568;DHT22;24338;48.280;10.970;2022-11-20T00:22:20;5.00;99.90
38568;DHT22;24338;48.280;10.970;2022-11-20T00:24:47;5.00;99.90
38568;DHT22;24338;48.280;10.970;2022-11-20T00:27:14;5.00;99.90
38568;DHT22;24338;48.280;10.970;2022-11-20T00:29:40;5.00;99.90
38568;DHT22;24338;48.280;10.970;2022-11-20T00:32:07;5.00;99.90
38568;DHT22;24338;48.280;10.970;2022-11-20T00:34:34;5.00;99.90
38568;DHT22;24338;48.280;10.970;2022-11-20T00:37:01;5.00;99.90
38568;DHT22;24338;48.280;10.970;2022-11-20T00:39:28;5.00;99.90
38568;DHT22;24338;48.280;10.970;2022-11-20T00:41:55;5.00;99.90
38568;DHT22;24338;48.280;10.970;2022-11-20T00:44:22;5.00;99.90
38568;DHT22;24338;48.280;10.970;2022-11-20T00:46:48;5.00;99.90
38568;DHT22;24338;48.280;10.970;2022-11-20T00:49:15;5.00;99.90
38568;DHT22;24338;48.280;10.970;2022-11-20T00:51:42;5.00;99.90
38568;DHT22;24338;48.280;10.970;2022-11-20T00:54:09;5.00;99.90
38568;DHT22;24338;48.280;10.970;2022-11-20T00:56:36;5.00;99.90
38568;DHT22;24338;48.280;10.970;2022-11-20T00:59:03;5.00;99.90
38568;DHT22;24338;48.280;10.970;2022-11-20T01:01:30;5.00;99.90
38568;DHT22;24338;48.280;10.970;2022-11-20T01:03:59;5.00;99.90
38568;DHT22;24338;48.280;10.970;2022-11-20T01:08:57;5.00;99.90
38568;DHT22;24338;48.280;10.970;2022-11-20T01:11:30;5.00;99.90
38568;DHT22;24338;48.280;10.970;2022-11-20T01:13:58;4.90;99.90
38568;DHT22;24338;48.280;10.970;2022-11-20T01:16:33;4.90;99.90
38568;DHT22;24338;48.280;10.970;2022-11-20T01:19:03;4.90;99.90
38568;DHT22;24338;48.280;10.970;2022-11-20T01:21:31;4.90;99.90
38568;DHT22;24338;48.280;10.970;2022-11-20T01:23:59;4.90;99.90
38568;DHT22;24338;48.280;10.970;2022-11-20T01:26:32;4.90;99.90
38568;DHT22;24338;48.280;10.970;2022-11-20T01:29:01;4.90;99.90
38568;DHT22;24338;48.280;10.970;2022-11-20T01:31:30;4.90;99.90
38568;DHT22;24338;48.280;10.970;2022-11-20T01:34:03;4.80;99.90
38568;DHT22;24338;48.280;10.970;2022-11-20T01:36:31;4.80;99.90
38568;DHT22;24338;48.280;10.970;2022-11-20T01:39:00;4.70;99.90
38568;DHT22;24338;48.280;10.970;2022-11-20T01:41:29;4.80;99.90
38568;DHT22;24338;48.280;10.970;2022-11-20T01:44:17;4.70;99.90
38568;DHT22;24338;48.280;10.970;2022-11-20T01:46:56;4.70;99.90
38568;DHT22;24338;48.280;10.970;2022-11-20T01:49:29;4.70;99.90
38568;DHT22;24338;48.280;10.970;2022-11-20T01:52:50;4.70;99.90
38568;DHT22;24338;48.280;10.970;2022-11-20T01:54:56;4.60;99.90
38568;DHT22;24338;48.280;10.970;2022-11-20T01:57:28;4.60;99.90
38568;DHT22;24338;48.280;10.970;2022-11-20T02:00:04;4.70;99.90
38568;DHT22;24338;48.280;10.970;2022-11-20T02:02:32;4.60;99.90
38568;DHT22;24338;48.280;10.970;2022-11-20T02:05:09;4.60;99.90
38568;DHT22;24338;48.280;10.970;2022-11-20T02:07:38;4.70;99.90
38568;DHT22;24338;48.280;10.970;2022-11-20T02:10:06;4.70;99.90
38568;DHT22;24338;48.280;10.970;2022-11-20T02:12:33;4.70;99.90
38568;DHT22;24338;48.280;10.970;2022-11-20T02:15:18;4.70;99.90
38568;DHT22;24338;48.280;10.970;2022-11-20T02:17:45;4.80;99.90
38568;DHT22;24338;48.280;10.970;2022-11-20T02:20:12;4.80;99.90
38568;DHT22;24338;48.280;10.970;2022-11-20T02:22:51;4.80;99.90
38568;DHT22;24338;48.280;10.970;2022-11-20T02:25:20;4.70;99.90
38568;DHT22;24338;48.280;10.970;2022-11-20T02:27:48;4.80;99.90
38568;DHT22;24338;48.280;10.970;2022-11-20T02:30:15;4.80;99.90
38568;DHT22;24338;48.280;10.970;2022-11-20T02:32:42;4.80;99.90
38568;DHT22;24338;48.280;10.970;2022-11-20T02:35:39;4.80;99.90
38568;DHT22;24338;48.280;10.970;2022-11-20T02:38:00;4.80;99.90
38568;DHT22;24338;48.280;10.970;2022-11-20T02:40:28;4.80;99.90
38568;DHT22;24338;48.280;10.970;2022-11-20T02:42:56;4.70;99.90
38568;DHT22;24338;48.280;10.970;2022-11-20T02:45:24;4.70;99.90
38568;DHT22;24338;48.280;10.970;2022-11-20T02:47:51;4.80;99.90
38568;DHT22;24338;48.280;10.970;2022-11-20T02:50:18;4.70;99.90
38568;DHT22;24338;48.280;10.970;2022-11-20T02:52:45;4.70;99.90
38568;DHT22;24338;48.280;10.970;2022-11-20T02:55:12;4.70;99.90
38568;DHT22;24338;48.280;10.970;2022-11-20T02:57:39;4.70;99.90
38568;DHT22;24338;48.280;10.970;2022-11-20T03:00:06;4.70;99.90
38568;DHT22;24338;48.280;10.970;2022-11-20T03:02:34;4.70;99.90
38568;DHT22;24338;48.280;10.970;2022-11-20T03:05:01;4.70;99.90
38568;DHT22;24338;48.280;10.970;2022-11-20T03:07:27;4.70;99.90
38568;DHT22;24338;48.280;10.970;2022-11-20T03:09:54;4.70;99.90
38568;DHT22;24338;48.280;10.970;2022-11-20T03:12:21;4.70;99.90
38568;DHT22;24338;48.280;10.970;2022-11-20T03:14:48;4.70;99.90
38568;DHT22;24338;48.280;10.970;2022-11-20T03:17:19;4.70;99.90
38568;DHT22;24338;48.280;10.970;2022-11-20T03:19:45;4.70;99.90
38568;DHT22;24338;48.280;10.970;2022-11-20T03:22:13;4.70;99.90
38568;DHT22;24338;48.280;10.970;2022-11-20T03:24:39;4.70;99.90
38568;DHT22;24338;48.280;10.970;2022-11-20T03:27:06;4.70;99.90
38568;DHT22;24338;48.280;10.970;2022-11-20T03:29:35;4.70;99.90
38568;DHT22;24338;48.280;10.970;2022-11-20T03:32:02;4.70;99.90
38568;DHT22;24338;48.280;10.970;2022-11-20T03:34:29;4.70;99.90
38568;DHT22;24338;48.280;10.970;2022-11-20T03:36:55;4.70;99.90
38568;DHT22;24338;48.280;10.970;2022-11-20T03:39:22;4.70;99.90
38568;DHT22;24338;48.280;10.970;2022-11-20T03:41:50;4.70;99.90
38568;DHT22;24338;48.280;10.970;2022-11-20T03:44:17;4.70;99.90
38568;DHT22;24338;48.280;10.970;2022-11-20T03:46:44;4.70;99.90
38568;DHT22;24338;48.280;10.970;2022-11-20T03:49:10;4.70;99.90
38568;DHT22;24338;48.280;10.970;2022-11-20T03:51:37;4.70;99.90
38568;DHT22;24338;48.280;10.970;2022-11-20T03:54:07;4.70;99.90
38568;DHT22;24338;48.280;10.970;2022-11-20T03:56:36;4.70;99.90
38568;DHT22;24338;48.280;10.970;2022-11-20T03:59:04;4.70;99.90
38568;DHT22;24338;48.280;10.970;2022-11-20T04:01:34;4.70;99.90
38568;DHT22;24338;48.280;10.970;2022-11-20T04:04:01;4.70;99.90
38568;DHT22;24338;48.280;10.970;2022-11-20T04:06:32;4.70;99.90
38568;DHT22;24338;48.280;10.970;2022-11-20T04:09:00;4.70;99.90
38568;DHT22;24338;48.280;10.970;2022-11-20T04:11:32;4.70;99.90
38568;DHT22;24338;48.280;10.970;2022-11-20T04:14:02;4.70;99.90
38568;DHT22;24338;48.280;10.970;2022-11-20T04:16:31;4.70;99.90
38568;DHT22;24338;48.280;10.970;2022-11-20T04:19:00;4.70;99.90
38568;DHT22;24338;48.280;10.970;2022-11-20T04:21:28;4.70;99.90
38568;DHT22;24338;48.280;10.970;2022-11-20T04:23:55;4.70;99.90
38568;DHT22;24338;48.280;10.970;2022-11-20T04:26:25;4.70;99.90
38568;DHT22;24338;48.280;10.970;2022-11-20T04:28:52;4.70;99.90
38568;DHT22;24338;48.280;10.970;2022-11-20T04:31:21;4.70;99.90
38568;DHT22;24338;48.280;10.970;2022-11-20T04:33:49;4.80;99.90
38568;DHT22;24338;48.280;10.970;2022-11-20T04:36:22;4.70;99.90
38568;DHT22;24338;48.280;10.970;2022-11-20T04:38:53;4.70;99.90
38568;DHT22;24338;48.280;10.970;2022-11-20T04:41:25;4.80;99.90
38568;DHT22;24338;48.280;10.970;2022-11-20T04:43:54;4.80;99.90
38568;DHT22;24338;48.280;10.970;2022-11-20T04:46:27;4.80;99.90
38568;DHT22;24338;48.280;10.970;2022-11-20T04:48:54;4.80;99.90
38568;DHT22;24338;48.280;10.970;2022-11-20T04:51:21;4.80;99.90
38568;DHT22;24338;48.280;10.970;2022-11-20T04:53:48;4.80;99.90
38568;DHT22;24338;48.280;10.970;2022-11-20T04:56:15;4.80;99.90
38568;DHT22;24338;48.280;10.970;2022-11-20T04:58:43;4.80;99.90
38568;DHT22;24338;48.280;10.970;2022-11-20T05:03:42;4.80;99.90
38568;DHT22;24338;48.280;10.970;2022-11-20T05:06:11;4.80;99.90
38568;DHT22;24338;48.280;10.970;2022-11-20T05:08:39;4.80;99.90
38568;DHT22;24338;48.280;10.970;2022-11-20T05:11:19;4.70;99.90
38568;DHT22;24338;48.280;10.970;2022-11-20T05:13:46;4.70;99.90
38568;DHT22;24338;48.280;10.970;2022-11-20T05:16:18;4.70;99.90
38568;DHT22;24338;48.280;10.970;2022-11-20T05:18:46;4.60;99.90
38568;DHT22;24338;48.280;10.970;2022-11-20T05:21:14;4.60;99.90
38568;DHT22;24338;48.280;10.970;2022-11-20T05:23:41;4.60;99.90
38568;DHT22;24338;48.280;10.970;2022-11-20T05:26:14;4.50;99.90
38568;DHT22;24338;48.280;10.970;2022-11-20T05:28:41;4.50;99.90
38568;DHT22;24338;48.280;10.970;2022-11-20T05:31:10;4.50;99.90
38568;DHT22;24338;48.280;10.970;2022-11-20T05:33:40;4.50;99.90
38568;DHT22;24338;48.280;10.970;2022-11-20T05:36:07;4.50;99.90
38568;DHT22;24338;48.280;10.970;2022-11-20T05:38:34;4.50;99.90
38568;DHT22;24338;48.280;10.970;2022-11-20T05:41:11;4.50;99.90
38568;DHT22;24338;48.280;10.970;2022-11-20T05:43:40;4.50;99.90
38568;DHT22;24338;48.280;10.970;2022-11-20T05:46:08;4.50;99.90
38568;DHT22;24338;48.280;10.970;2022-11-20T05:48:36;4.50;99.90
38568;DHT22;24338;48.280;10.970;2022-11-20T05:51:05;4.60;99.90
38568;DHT22;24338;48.280;10.970;2022-11-20T05:53:33;4.60;99.90
38568;DHT22;24338;48.280;10.970;2022-11-20T05:56:06;4.60;99.90
38568;DHT22;24338;48.280;10.970;2022-11-20T05:58:33;4.60;99.90
38568;DHT22;24338;48.280;10.970;2022-11-20T06:01:17;4.60;99.90
38568;DHT22;24338;48.280;10.970;2022-11-20T06:03:44;4.60;99.90
38568;DHT22;24338;48.280;10.970;2022-11-20T06:06:15;4.60;99.90
38568;DHT22;24338;48.280;10.970;2022-11-20T06:08:43;4.60;99.90
38568;DHT22;24338;48.280;10.970;2022-11-20T06:11:12;4.70;99.90
38568;DHT22;24338;48.280;10.970;2022-11-20T06:13:39;4.70;99.90
38568;DHT22;24338;48.280;10.970;2022-11-20T06:16:09;4.70;99.90
38568;DHT22;24338;48.280;10.970;2022-11-20T06:18:36;4.70;99.90
38568;DHT22;24338;48.280;10.970;2022-11-20T06:21:11;4.70;99.90
38568;DHT22;24338;48.280;10.970;2022-11-20T06:23:39;4.70;99.90
38568;DHT22;24338;48.280;10.970;2022-11-20T06:26:08;4.80;99.90
38568;DHT22;24338;48.280;10.970;2022-11-20T06:28:36;4.70;99.90
38568;DHT22;24338;48.280;10.970;2022-11-20T06:31:05;4.70;99.90
38568;DHT22;24338;48.280;10.970;2022-11-20T06:33:32;4.70;99.90
38568;DHT22;24338;48.280;10.970;2022-11-20T06:36:00;4.70;99.90
38568;DHT22;24338;48.280;10.970;2022-11-20T06:38:35;4.70;99.90
38568;DHT22;24338;48.280;10.970;2022-11-20T06:41:03;4.70;99.90
38568;DHT22;24338;48.280;10.970;2022-11-20T06:43:31;4.70;99.90
38568;DHT22;24338;48.280;10.970;2022-11-20T06:45:58;4.70;99.90
38568;DHT22;24338;48.280;10.970;2022-11-20T06:48:27;4.70;99.90
38568;DHT22;24338;48.280;10.970;2022-11-20T06:50:54;4.70;99.90
38568;DHT22;24338;48.280;10.970;2022-11-20T06:53:22;4.70;99.90
38568;DHT22;24338;48.280;10.970;2022-11-20T06:55:50;4.70;99.90
38568;DHT22;24338;48.280;10.970;2022-11-20T06:58:17;4.70;99.90
38568;DHT22;24338;48.280;10.970;2022-11-20T07:00:44;4.70;99.90
38568;DHT22;24338;48.280;10.970;2022-11-20T07:03:12;4.70;99.90
38568;DHT22;24338;48.280;10.970;2022-11-20T07:05:39;4.70;99.90
38568;DHT22;24338;48.280;10.970;2022-11-20T07:08:07;4.70;99.90
38568;DHT22;24338;48.280;10.970;2022-11-20T07:10:34;4.70;99.90
38568;DHT22;24338;48.280;10.970;2022-11-20T07:13:01;4.80;99.90
38568;DHT22;24338;48.280;10.970;2022-11-20T07:15:28;4.80;99.90
38568;DHT22;24338;48.280;10.970;2022-11-20T07:17:58;4.80;99.90
38568;DHT22;24338;48.280;10.970;2022-11-20T07:20:24;4.90;99.90
38568;DHT22;24338;48.280;10.970;2022-11-20T07:22:55;4.90;99.90
38568;DHT22;24338;48.280;10.970;2022-11-20T07:25:23;5.00;99.90
38568;DHT22;24338;48.280;10.970;2022-11-20T07:27:50;5.00;99.90
38568;DHT22;24338;48.280;10.970;2022-11-20T07:30:18;5.00;99.90
38568;DHT22;24338;48.280;10.970;2022-11-20T07:32:51;5.00;99.90
38568;DHT22;24338;48.280;10.970;2022-11-20T07:35:19;5.00;99.90
38568;DHT22;24338;48.280;10.970;2022-11-20T07:37:47;5.10;99.90
38568;DHT22;24338;48.280;10.970;2022-11-20T07:40:16;5.10;99.90
38568;DHT22;24338;48.280;10.970;2022-11-20T07:42:50;5.10;99.90
38568;DHT22;24338;48.280;10.970;2022-11-20T07:45:18;5.10;99.90
38568;DHT22;24338;48.280;10.970;2022-11-20T07:47:45;5.10;99.90
38568;DHT22;24338;48.280;10.970;2022-11-20T07:50:12;5.20;99.90
38568;DHT22;24338;48.280;10.970;2022-11-20T07:52:39;5.20;99.90
38568;DHT22;24338;48.280;10.970;2022-11-20T07:55:08;5.20;99.90
38568;DHT22;24338;48.280;10.970;2022-11-20T07:57:35;5.20;99.90
38568;DHT22;24338;48.280;10.970;2022-11-20T08:00:03;5.30;99.90
38568;DHT22;24338;48.280;10.970;2022-11-20T08:02:31;5.30;99.90
38568;DHT22;24338;48.280;10.970;2022-11-20T08:04:57;5.30;99.90
38568;DHT22;24338;48.280;10.970;2022-11-20T08:07:24;5.30;99.90
38568;DHT22;24338;48.280;10.970;2022-11-20T08:09:51;5.40;99.90
38568;DHT22;24338;48.280;10.970;2022-11-20T08:12:20;5.40;99.90
38568;DHT22;24338;48.280;10.970;2022-11-20T08:15:06;5.50;99.90
38568;DHT22;24338;48.280;10.970;2022-11-20T08:17:38;5.50;99.90
38568;DHT22;24338;48.280;10.970;2022-11-20T08:20:06;5.50;99.90
38568;DHT22;24338;48.280;10.970;2022-11-20T08:22:32;5.50;99.90
38568;DHT22;24338;48.280;10.970;2022-11-20T08:24:59;5.50;99.90
38568;DHT22;24338;48.280;10.970;2022-11-20T08:27:26;5.50;99.90
38568;DHT22;24338;48.280;10.970;2022-11-20T08:29:53;5.50;99.90
38568;DHT22;24338;48.280;10.970;2022-11-20T08:32:20;5.60;99.90
38568;DHT22;24338;48.280;10.970;2022-11-20T08:34:47;5.60;99.90
38568;DHT22;24338;48.280;10.970;2022-11-20T08:37:14;5.70;99.90
38568;DHT22;24338;48.280;10.970;2022-11-20T08:39:40;5.70;99.90
38568;DHT22;24338;48.280;10.970;2022-11-20T08:42:08;5.80;99.90
38568;DHT22;24338;48.280;10.970;2022-11-20T08:44:34;5.80;99.90
38568;DHT22;24338;48.280;10.970;2022-11-20T08:47:01;5.90;99.90
38568;DHT22;24338;48.280;10.970;2022-11-20T08:49:28;6.00;99.90
38568;DHT22;24338;48.280;10.970;2022-11-20T08:51:55;6.10;99.90
38568;DHT22;24338;48.280;10.970;2022-11-20T08:54:22;6.10;99.90
38568;DHT22;24338;48.280;10.970;2022-11-20T08:56:49;6.30;99.90
38568;DHT22;24338;48.280;10.970;2022-11-20T08:59:16;6.30;99.90
38568;DHT22;24338;48.280;10.970;2022-11-20T09:02:02;6.40;99.90
38568;DHT22;24338;48.280;10.970;2022-11-20T09:04:29;6.40;99.90
38568;DHT22;24338;48.280;10.970;2022-11-20T09:06:56;6.40;99.90
38568;DHT22;24338;48.280;10.970;2022-11-20T09:09:23;6.50;99.90
38568;DHT22;24338;48.280;10.970;2022-11-20T09:11:50;6.50;99.90
38568;DHT22;24338;48.280;10.970;2022-11-20T09:14:17;6.50;99.90
38568;DHT22;24338;48.280;10.970;2022-11-20T09:16:46;6.50;99.90
38568;DHT22;24338;48.280;10.970;2022-11-20T09:19:13;6.50;99.90
38568;DHT22;24338;48.280;10.970;2022-11-20T09:22:00;6.50;99.90
38568;DHT22;24338;48.280;10.970;2022-11-20T09:24:27;6.50;99.90
38568;DHT22;24338;48.280;10.970;2022-11-20T09:26:54;6.50;99.90
38568;DHT22;24338;48.280;10.970;2022-11-20T09:29:21;6.50;99.90
38568;DHT22;24338;48.280;10.970;2022-11-20T09:31:48;6.50;99.90
38568;DHT22;24338;48.280;10.970;2022-11-20T09:34:15;6.50;99.90
38568;DHT22;24338;48.280;10.970;2022-11-20T09:36:42;6.60;99.90
38568;DHT22;24338;48.280;10.970;2022-11-20T09:39:09;6.60;99.90
38568;DHT22;24338;48.280;10.970;2022-11-20T09:52:27;6.70;99.90
38568;DHT22;24338;48.280;10.970;2022-11-20T09:54:57;6.70;99.90
38568;DHT22;24338;48.280;10.970;2022-11-20T09:57:39;6.70;99.90
38568;DHT22;24338;48.280;10.970;2022-11-20T10:00:12;6.70;99.90
38568;DHT22;24338;48.280;10.970;2022-11-20T10:02:55;6.90;99.90
38568;DHT22;24338;48.280;10.970;2022-11-20T10:05:30;7.10;99.90
38568;DHT22;24338;48.280;10.970;2022-11-20T10:16:57;7.10;99.90
38568;DHT22;24338;48.280;10.970;2022-11-20T10:30:11;6.90;99.90
38568;DHT22;24338;48.280;10.970;2022-11-20T10:32:47;6.80;99.90
38568;DHT22;24338;48.280;10.970;2022-11-20T10:37:57;6.70;99.90
38568;DHT22;24338;48.280;10.970;2022-11-20T10:40:44;6.70;99.90
38568;DHT22;24338;48.280;10.970;2022-11-20T10:43:23;6.70;99.90
38568;DHT22;24338;48.280;10.970;2022-11-20T10:46:03;6.70;99.90
38568;DHT22;24338;48.280;10.970;2022-11-20T10:48:32;6.70;99.90
38568;DHT22;24338;48.280;10.970;2022-11-20T10:53:46;6.70;99.90
38568;DHT22;24338;48.280;10.970;2022-11-20T11:01:51;6.80;99.90
38568;DHT22;24338;48.280;10.970;2022-11-20T11:04:37;6.80;99.90
38568;DHT22;24338;48.280;10.970;2022-11-20T11:09:41;6.80;99.90
38568;DHT22;24338;48.280;10.970;2022-11-20T11:12:10;6.70;99.90
38568;DHT22;24338;48.280;10.970;2022-11-20T11:14:49;6.60;99.90
38568;DHT22;24338;48.280;10.970;2022-11-20T11:17:31;6.60;99.90
38568;DHT22;24338;48.280;10.970;2022-11-20T11:23:02;6.50;99.90
38568;DHT22;24338;48.280;10.970;2022-11-20T11:25:35;6.50;99.90
38568;DHT22;24338;48.280;10.970;2022-11-20T11:30:42;6.50;99.90
38568;DHT22;24338;48.280;10.970;2022-11-20T11:33:17;6.50;99.90
38568;DHT22;24338;48.280;10.970;2022-11-20T11:35:47;6.50;99.90
38568;DHT22;24338;48.280;10.970;2022-11-20T11:38:21;6.60;99.90
38568;DHT22;24338;48.280;10.970;2022-11-20T11:40:49;6.50;99.90
38568;DHT22;24338;48.280;10.970;2022-11-20T11:43:24;6.50;99.90
38568;DHT22;24338;48.280;10.970;2022-11-20T11:46:30;6.50;99.90
38568;DHT22;24338;48.280;10.970;2022-11-20T11:49:17;6.50;99.90
38568;DHT22;24338;48.280;10.970;2022-11-20T11:52:20;6.60;99.90
38568;DHT22;24338;48.280;10.970;2022-11-20T11:54:53;6.50;99.90
38568;DHT22;24338;48.280;10.970;2022-11-20T12:00:02;6.50;99.90
38568;DHT22;24338;48.280;10.970;2022-11-20T12:12:55;6.70;99.90
38568;DHT22;24338;48.280;10.970;2022-11-20T12:15:33;6.70;99.90
38568;DHT22;24338;48.280;10.970;2022-11-20T12:18:00;6.70;99.90
38568;DHT22;24338;48.280;10.970;2022-11-20T12:20:38;6.70;99.90
38568;DHT22;24338;48.280;10.970;2022-11-20T12:23:23;6.80;99.90
38568;DHT22;24338;48.280;10.970;2022-11-20T12:25:54;6.80;99.90
38568;DHT22;24338;48.280;10.970;2022-11-20T12:31:25;6.80;99.90
38568;DHT22;24338;48.280;10.970;2022-11-20T12:34:15;6.60;99.90
38568;DHT22;24338;48.280;10.970;2022-11-20T12:36:54;6.50;99.90
38568;DHT22;24338;48.280;10.970;2022-11-20T12:39:43;6.50;99.90
38568;DHT22;24338;48.280;10.970;2022-11-20T12:45:34;6.50;99.90
38568;DHT22;24338;48.280;10.970;2022-11-20T12:56:45;6.30;99.90
38568;DHT22;24338;48.280;10.970;2022-11-20T12:59:32;6.30;99.90
38568;DHT22;24338;48.280;10.970;2022-11-20T13:07:41;6.20;99.90
38568;DHT22;24338;48.280;10.970;2022-11-20T13:10:46;6.10;99.90
38568;DHT22;24338;48.280;10.970;2022-11-20T13:19:21;6.10;99.90
38568;DHT22;24338;48.280;10.970;2022-11-20T13:21:49;6.10;99.90
38568;DHT22;24338;48.280;10.970;2022-11-20T13:29:44;6.10;99.90
38568;DHT22;24338;48.280;10.970;2022-11-20T13:32:19;6.10;99.90
38568;DHT22;24338;48.280;10.970;2022-11-20T13:34:55;6.10;99.90
38568;DHT22;24338;48.280;10.970;2022-11-20T13:37:29;6.10;99.90
38568;DHT22;24338;48.280;10.970;2022-11-20T13:42:44;6.10;99.90
38568;DHT22;24338;48.280;10.970;2022-11-20T13:47:51;6.10;99.90
38568;DHT22;24338;48.280;10.970;2022-11-20T13:50:19;6.10;99.90
38568;DHT22;24338;48.280;10.970;2022-11-20T13:56:16;6.10;99.90
38568;DHT22;24338;48.280;10.970;2022-11-20T13:59:19;6.10;99.90
38568;DHT22;24338;48.280;10.970;2022-11-20T14:01:42;6.10;99.90
38568;DHT22;24338;48.280;10.970;2022-11-20T14:04:18;6.10;99.90
38568;DHT22;24338;48.280;10.970;2022-11-20T14:06:47;6.10;99.90
38568;DHT22;24338;48.280;10.970;2022-11-20T14:09:32;6.20;99.90
38568;DHT22;24338;48.280;10.970;2022-11-20T14:12:02;6.20;99.90
38568;DHT22;24338;48.280;10.970;2022-11-20T14:14:31;6.20;99.90
38568;DHT22;24338;48.280;10.970;2022-11-20T14:17:07;6.20;99.90
38568;DHT22;24338;48.280;10.970;2022-11-20T14:19:34;6.20;99.90
38568;DHT22;24338;48.280;10.970;2022-11-20T14:22:19;6.20;99.90
38568;DHT22;24338;48.280;10.970;2022-11-20T14:24:48;6.20;99.90
38568;DHT22;24338;48.280;10.970;2022-11-20T14:27:20;6.20;99.90
38568;DHT22;24338;48.280;10.970;2022-11-20T14:29:47;6.20;99.90
38568;DHT22;24338;48.280;10.970;2022-11-20T14:32:19;6.10;99.90
38568;DHT22;24338;48.280;10.970;2022-11-20T14:34:49;6.10;99.90
38568;DHT22;24338;48.280;10.970;2022-11-20T14:37:28;6.10;99.90
38568;DHT22;24338;48.280;10.970;2022-11-20T14:39:58;6.10;99.90
38568;DHT22;24338;48.280;10.970;2022-11-20T14:42:28;6.10;99.90
38568;DHT22;24338;48.280;10.970;2022-11-20T14:44:57;6.10;99.90
38568;DHT22;24338;48.280;10.970;2022-11-20T14:47:30;6.10;99.90
38568;DHT22;24338;48.280;10.970;2022-11-20T14:49:58;6.10;99.90
38568;DHT22;24338;48.280;10.970;2022-11-20T14:52:31;6.10;99.90
38568;DHT22;24338;48.280;10.970;2022-11-20T14:54:58;6.10;99.90
38568;DHT22;24338;48.280;10.970;2022-11-20T15:02:40;6.00;99.90
38568;DHT22;24338;48.280;10.970;2022-11-20T15:05:07;6.00;99.90
38568;DHT22;24338;48.280;10.970;2022-11-20T15:07:38;5.90;99.90
38568;DHT22;24338;48.280;10.970;2022-11-20T15:10:08;5.70;99.90
38568;DHT22;24338;48.280;10.970;2022-11-20T15:12:38;5.50;99.90
38568;DHT22;24338;48.280;10.970;2022-11-20T15:15:09;5.30;99.90
38568;DHT22;24338;48.280;10.970;2022-11-20T15:17:38;5.10;99.90
38568;DHT22;24338;48.280;10.970;2022-11-20T15:20:12;5.10;99.90
38568;DHT22;24338;48.280;10.970;2022-11-20T15:22:40;5.10;99.90
38568;DHT22;24338;48.280;10.970;2022-11-20T15:25:17;5.10;99.90
38568;DHT22;24338;48.280;10.970;2022-11-20T15:27:45;5.10;99.90
38568;DHT22;24338;48.280;10.970;2022-11-20T15:30:19;5.00;99.90
38568;DHT22;24338;48.280;10.970;2022-11-20T15:32:47;5.00;99.90
38568;DHT22;24338;48.280;10.970;2022-11-20T15:35:15;4.90;99.90
38568;DHT22;24338;48.280;10.970;2022-11-20T15:37:42;5.00;99.90
38568;DHT22;24338;48.280;10.970;2022-11-20T15:40:09;5.00;99.90
38568;DHT22;24338;48.280;10.970;2022-11-20T15:42:36;5.00;99.90
38568;DHT22;24338;48.280;10.970;2022-11-20T15:45:03;5.00;99.90
38568;DHT22;24338;48.280;10.970;2022-11-20T15:47:33;5.00;99.90
38568;DHT22;24338;48.280;10.970;2022-11-20T15:50:00;5.00;99.90
38568;DHT22;24338;48.280;10.970;2022-11-20T15:52:27;5.00;99.90
38568;DHT22;24338;48.280;10.970;2022-11-20T15:55:09;5.00;99.90
38568;DHT22;24338;48.280;10.970;2022-11-20T15:57:36;5.00;99.90
38568;DHT22;24338;48.280;10.970;2022-11-20T16:00:04;4.90;99.90
38568;DHT22;24338;48.280;10.970;2022-11-20T16:02:31;5.00;99.90
38568;DHT22;24338;48.280;10.970;2022-11-20T16:04:58;4.90;99.90
38568;DHT22;24338;48.280;10.970;2022-11-20T16:07:24;4.90;99.90
38568;DHT22;24338;48.280;10.970;2022-11-20T16:09:51;5.00;99.90
38568;DHT22;24338;48.280;10.970;2022-11-20T16:12:18;4.90;99.90
38568;DHT22;24338;48.280;10.970;2022-11-20T16:15:04;5.00;99.90
38568;DHT22;24338;48.280;10.970;2022-11-20T16:17:49;5.00;99.90
38568;DHT22;24338;48.280;10.970;2022-11-20T16:20:16;4.90;99.90
38568;DHT22;24338;48.280;10.970;2022-11-20T16:22:43;4.80;99.90
38568;DHT22;24338;48.280;10.970;2022-11-20T16:25:10;4.70;99.90
38568;DHT22;24338;48.280;10.970;2022-11-20T16:27:37;4.70;99.90
38568;DHT22;24338;48.280;10.970;2022-11-20T16:30:04;4.70;99.90
38568;DHT22;24338;48.280;10.970;2022-11-20T16:32:31;4.60;99.90
38568;DHT22;24338;48.280;10.970;2022-11-20T16:34:58;4.50;99.90
38568;DHT22;24338;48.280;10.970;2022-11-20T16:37:25;4.50;99.90
38568;DHT22;24338;48.280;10.970;2022-11-20T16:39:51;4.40;99.90
38568;DHT22;24338;48.280;10.970;2022-11-20T16:42:18;4.30;99.90
38568;DHT22;24338;48.280;10.970;2022-11-20T16:44:45;4.30;99.90
38568;DHT22;24338;48.280;10.970;2022-11-20T16:47:13;4.20;99.90
38568;DHT22;24338;48.280;10.970;2022-11-20T16:49:40;4.20;99.90
38568;DHT22;24338;48.280;10.970;2022-11-20T16:52:07;4.20;99.90
38568;DHT22;24338;48.280;10.970;2022-11-20T16:54:33;4.10;99.90
38568;DHT22;24338;48.280;10.970;2022-11-20T16:57:00;4.10;99.90
38568;DHT22;24338;48.280;10.970;2022-11-20T16:59:27;4.00;99.90
38568;DHT22;24338;48.280;10.970;2022-11-20T17:01:54;4.00;99.90
38568;DHT22;24338;48.280;10.970;2022-11-20T17:04:21;4.00;99.90
38568;DHT22;24338;48.280;10.970;2022-11-20T17:06:48;3.90;99.90
38568;DHT22;24338;48.280;10.970;2022-11-20T17:09:16;3.80;99.90
38568;DHT22;24338;48.280;10.970;2022-11-20T17:11:43;3.70;99.90
38568;DHT22;24338;48.280;10.970;2022-11-20T17:14:12;3.70;99.90
38568;DHT22;24338;48.280;10.970;2022-11-20T17:16:39;3.70;99.90
38568;DHT22;24338;48.280;10.970;2022-11-20T17:19:06;3.70;99.90
38568;DHT22;24338;48.280;10.970;2022-11-20T17:21:34;3.60;99.90
38568;DHT22;24338;48.280;10.970;2022-11-20T17:24:04;3.60;99.90
38568;DHT22;24338;48.280;10.970;2022-11-20T17:26:32;3.60;99.90
38568;DHT22;24338;48.280;10.970;2022-11-20T17:29:04;3.60;99.90
38568;DHT22;24338;48.280;10.970;2022-11-20T17:31:32;3.60;99.90
38568;DHT22;24338;48.280;10.970;2022-11-20T17:34:00;3.60;99.90
38568;DHT22;24338;48.280;10.970;2022-11-20T17:36:28;3.60;99.90
38568;DHT22;24338;48.280;10.970;2022-11-20T17:38:55;3.50;99.90
38568;DHT22;24338;48.280;10.970;2022-11-20T17:41:24;3.50;99.90